createdAt,value
2018-03-06T00:01:07.454Z,3.51
2018-03-06T00:02:16.281Z,3.68
2018-03-06T00:03:25.111Z,3.55
2018-03-06T00:04:34.245Z,3.6
2018-03-06T00:05:43.121Z,3.5
2018-03-06T00:06:51.949Z,3.7
2018-03-06T00:08:00.776Z,3.54
2018-03-06T00:09:09.603Z,3.54
2018-03-06T00:10:18.432Z,3.57
2018-03-06T00:11:27.305Z,3.48
2018-03-06T00:12:36.134Z,3.43
2018-03-06T00:13:44.962Z,3.47
2018-03-06T00:14:53.788Z,3.43
2018-03-06T00:16:02.614Z,3.5
2018-03-06T00:17:11.446Z,3.45
2018-03-06T00:18:20.270Z,3.35
2018-03-06T00:19:29.099Z,3.36
2018-03-06T00:20:37.927Z,3.51
2018-03-06T00:21:46.760Z,3.5
2018-03-06T00:22:55.965Z,3.51
2018-03-06T00:24:04.795Z,3.47
2018-03-06T00:25:13.911Z,3.48
2018-03-06T00:26:22.767Z,3.47
2018-03-06T00:27:31.567Z,3.47
2018-03-06T00:28:40.545Z,3.47
2018-03-06T00:29:49.372Z,3.36
2018-03-06T00:30:58.200Z,3.42
2018-03-06T00:32:07.309Z,3.32
2018-03-06T00:33:16.137Z,3.29
2018-03-06T00:34:25.063Z,3.32
2018-03-06T00:35:33.892Z,3.28
2018-03-06T00:36:42.718Z,3.33
2018-03-06T00:37:51.544Z,3.36
2018-03-06T00:39:00.375Z,3.39
2018-03-06T00:40:09.201Z,3.36
2018-03-06T00:41:18.028Z,3.39
2018-03-06T00:42:26.857Z,3.4
2018-03-06T00:43:35.691Z,3.33
2018-03-06T00:44:44.512Z,3.36
2018-03-06T00:45:53.395Z,3.4
2018-03-06T00:47:02.219Z,3.48
2018-03-06T00:48:11.046Z,3.35
2018-03-06T00:49:19.874Z,3.42
2018-03-06T00:50:28.700Z,3.39
2018-03-06T00:51:37.629Z,3.33
2018-03-06T00:52:46.459Z,3.48
2018-03-06T00:53:55.285Z,3.35
2018-03-06T00:55:04.163Z,3.32
2018-03-06T00:56:13.288Z,3.31
2018-03-06T00:57:22.263Z,3.26
2018-03-06T00:58:32.232Z,3.17
2018-03-06T00:59:41.060Z,3.2
2018-03-06T01:00:49.885Z,3.11
2018-03-06T01:01:58.714Z,3.15
2018-03-06T01:03:07.544Z,3.14
2018-03-06T01:04:16.369Z,3.1
2018-03-06T01:05:25.196Z,3.08
2018-03-06T01:06:34.035Z,3.13
2018-03-06T01:07:43.171Z,3.1
2018-03-06T01:08:51.999Z,3.14
2018-03-06T01:10:01.138Z,3.15
2018-03-06T01:11:09.965Z,3.17
2018-03-06T01:12:19.094Z,3.13
2018-03-06T01:13:27.921Z,3.11
2018-03-06T01:14:36.749Z,3.13
2018-03-06T01:15:45.577Z,3.08
2018-03-06T01:16:54.401Z,3.03
2018-03-06T01:18:03.536Z,3.1
2018-03-06T01:19:12.366Z,3.05
2018-03-06T01:20:21.313Z,3.13
2018-03-06T01:21:30.494Z,3.1
2018-03-06T01:22:39.322Z,3.03
2018-03-06T01:23:48.157Z,3.08
2018-03-06T01:24:57.283Z,3.14
2018-03-06T01:26:06.161Z,3.03
2018-03-06T01:27:14.987Z,3.1
2018-03-06T01:28:23.819Z,3.11
2018-03-06T01:29:32.641Z,3.08
2018-03-06T01:30:41.467Z,3.11
2018-03-06T01:31:50.346Z,3.14
2018-03-06T01:32:59.172Z,3.14
2018-03-06T01:34:08.002Z,3.15
2018-03-06T01:35:17.123Z,3.15
2018-03-06T01:36:25.952Z,3.11
2018-03-06T01:37:34.921Z,3.21
2018-03-06T01:38:43.705Z,3.1
2018-03-06T01:39:52.530Z,3.17
2018-03-06T01:41:01.363Z,3.14
2018-03-06T01:42:10.191Z,3.08
2018-03-06T01:43:19.022Z,3.1
2018-03-06T01:44:27.846Z,3.05
2018-03-06T01:45:36.672Z,3.06
2018-03-06T01:46:45.500Z,3.08
2018-03-06T01:47:54.327Z,3.1
2018-03-06T01:49:03.455Z,3.13
2018-03-06T01:50:12.282Z,3.1
2018-03-06T01:51:21.407Z,3.11
2018-03-06T01:52:30.234Z,3.1
2018-03-06T01:53:39.064Z,3.08
2018-03-06T01:54:48.040Z,3.02
2018-03-06T01:55:56.868Z,3.14
2018-03-06T01:57:05.692Z,3.15
2018-03-06T01:58:14.523Z,3.08
2018-03-06T01:59:23.348Z,3.13
2018-03-06T02:00:32.325Z,3.02
2018-03-06T02:01:41.199Z,3
2018-03-06T02:02:50.031Z,2.96
2018-03-06T02:03:58.857Z,2.99
2018-03-06T02:05:07.682Z,3
2018-03-06T02:06:16.560Z,3
2018-03-06T02:07:25.388Z,2.95
2018-03-06T02:08:34.214Z,2.99
2018-03-06T02:09:43.041Z,2.97
2018-03-06T02:10:52.180Z,2.95
2018-03-06T02:12:01.258Z,2.96
2018-03-06T02:13:10.084Z,2.92
2018-03-06T02:14:18.912Z,2.93
2018-03-06T02:15:28.779Z,2.93
2018-03-06T02:16:37.617Z,2.92
2018-03-06T02:17:46.445Z,2.93
2018-03-06T02:18:55.273Z,2.92
2018-03-06T02:20:04.101Z,2.84
2018-03-06T02:21:12.926Z,2.92
2018-03-06T02:22:21.755Z,2.95
2018-03-06T02:23:30.881Z,2.84
2018-03-06T02:24:39.711Z,2.79
2018-03-06T02:25:48.536Z,2.87
2018-03-06T02:26:57.364Z,2.87
2018-03-06T02:28:06.192Z,2.9
2018-03-06T02:29:15.018Z,2.9
2018-03-06T02:30:23.910Z,2.93
2018-03-06T02:31:32.958Z,2.87
2018-03-06T02:32:41.786Z,2.79
2018-03-06T02:33:50.924Z,2.82
2018-03-06T02:34:59.901Z,2.82
2018-03-06T02:36:08.728Z,2.77
2018-03-06T02:37:17.556Z,2.79
2018-03-06T02:38:26.382Z,2.69
2018-03-06T02:39:35.211Z,2.74
2018-03-06T02:40:44.093Z,2.74
2018-03-06T02:41:52.919Z,2.75
2018-03-06T02:43:01.749Z,2.77
2018-03-06T02:44:10.886Z,2.79
2018-03-06T02:45:19.717Z,2.81
2018-03-06T02:46:28.542Z,2.64
2018-03-06T02:47:37.370Z,2.67
2018-03-06T02:48:46.199Z,2.77
2018-03-06T02:49:55.028Z,2.67
2018-03-06T02:51:04.143Z,2.64
2018-03-06T02:52:13.123Z,2.67
2018-03-06T02:53:22.546Z,2.63
2018-03-06T02:54:31.373Z,2.67
2018-03-06T02:55:40.487Z,2.64
2018-03-06T02:56:49.313Z,2.69
2018-03-06T02:57:58.191Z,2.67
2018-03-06T02:59:07.325Z,2.61
2018-03-06T03:00:16.152Z,2.63
2018-03-06T03:01:24.980Z,2.6
2018-03-06T03:02:33.808Z,2.72
2018-03-06T03:03:42.785Z,2.78
2018-03-06T03:04:51.612Z,2.67
2018-03-06T03:06:00.438Z,2.75
2018-03-06T03:07:09.267Z,2.63
2018-03-06T03:08:18.092Z,2.67
2018-03-06T03:09:26.920Z,2.81
2018-03-06T03:10:35.749Z,2.78
2018-03-06T03:11:44.576Z,2.74
2018-03-06T03:12:53.403Z,2.64
2018-03-06T03:14:02.231Z,2.71
2018-03-06T03:15:11.257Z,2.69
2018-03-06T03:16:21.268Z,2.75
2018-03-06T03:17:31.049Z,2.6
2018-03-06T03:18:39.883Z,2.67
2018-03-06T03:19:48.709Z,2.72
2018-03-06T03:20:57.900Z,2.63
2018-03-06T03:22:06.726Z,2.57
2018-03-06T03:23:15.556Z,2.53
2018-03-06T03:24:24.391Z,2.49
2018-03-06T03:25:33.222Z,2.46
2018-03-06T03:26:42.051Z,2.49
2018-03-06T03:27:50.877Z,2.42
2018-03-06T03:28:59.705Z,2.41
2018-03-06T03:30:08.531Z,2.46
2018-03-06T03:31:17.671Z,2.42
2018-03-06T03:32:26.496Z,2.31
2018-03-06T03:33:35.324Z,2.35
2018-03-06T03:34:44.493Z,2.35
2018-03-06T03:35:54.484Z,2.3
2018-03-06T03:37:03.312Z,2.28
2018-03-06T03:38:12.448Z,2.31
2018-03-06T03:39:21.280Z,2.27
2018-03-06T03:40:30.107Z,2.25
2018-03-06T03:41:38.932Z,2.27
2018-03-06T03:42:47.760Z,2.31
2018-03-06T03:43:56.837Z,2.3
2018-03-06T03:45:05.663Z,2.28
2018-03-06T03:46:15.418Z,2.25
2018-03-06T03:47:24.243Z,2.31
2018-03-06T03:48:33.073Z,2.27
2018-03-06T03:49:42.151Z,2.3
2018-03-06T03:50:50.977Z,2.23
2018-03-06T03:51:59.806Z,2.27
2018-03-06T03:53:08.916Z,2.2
2018-03-06T03:54:17.743Z,2.21
2018-03-06T03:55:26.618Z,2.12
2018-03-06T03:56:35.444Z,2.25
2018-03-06T03:57:44.271Z,2.2
2018-03-06T03:58:53.097Z,2.17
2018-03-06T04:00:02.232Z,2.18
2018-03-06T04:01:11.309Z,2.23
2018-03-06T04:02:20.139Z,2.12
2018-03-06T04:03:28.964Z,2.17
2018-03-06T04:04:37.789Z,2.18
2018-03-06T04:05:46.614Z,2.25
2018-03-06T04:06:55.743Z,2.27
2018-03-06T04:08:04.568Z,2.2
2018-03-06T04:09:13.396Z,2.24
2018-03-06T04:10:22.224Z,2.24
2018-03-06T04:11:31.048Z,2.17
2018-03-06T04:12:39.926Z,2.16
2018-03-06T04:13:48.750Z,2.12
2018-03-06T04:14:57.577Z,2.14
2018-03-06T04:16:06.403Z,2.18
2018-03-06T04:17:15.262Z,2.14
2018-03-06T04:18:24.156Z,2.1
2018-03-06T04:19:32.986Z,2.2
2018-03-06T04:20:41.813Z,2.09
2018-03-06T04:21:50.638Z,2.12
2018-03-06T04:22:59.465Z,2.12
2018-03-06T04:24:08.694Z,2.16
2018-03-06T04:25:17.520Z,2.14
2018-03-06T04:26:26.342Z,2.18
2018-03-06T04:27:35.169Z,2.12
2018-03-06T04:28:43.992Z,2.18
2018-03-06T04:29:54.079Z,2.07
2018-03-06T04:31:02.904Z,2.12
2018-03-06T04:32:11.731Z,2.07
2018-03-06T04:33:20.562Z,2.1
2018-03-06T04:34:29.680Z,2.17
2018-03-06T04:35:38.505Z,2.06
2018-03-06T04:36:47.335Z,2.06
2018-03-06T04:37:56.463Z,1.99
2018-03-06T04:39:05.291Z,2.07
2018-03-06T04:40:14.117Z,1.99
2018-03-06T04:41:22.943Z,1.93
2018-03-06T04:42:31.770Z,2.09
2018-03-06T04:43:40.599Z,2.06
2018-03-06T04:44:50.023Z,2.02
2018-03-06T04:45:58.847Z,1.99
2018-03-06T04:47:07.673Z,1.91
2018-03-06T04:48:16.500Z,2.02
2018-03-06T04:49:25.326Z,1.95
2018-03-06T04:50:34.151Z,1.93
2018-03-06T04:51:42.975Z,1.98
2018-03-06T04:52:52.195Z,1.91
2018-03-06T04:54:01.024Z,1.99
2018-03-06T04:55:09.852Z,2.02
2018-03-06T04:56:18.679Z,2.05
2018-03-06T04:57:27.507Z,2.03
2018-03-06T04:58:36.329Z,1.98
2018-03-06T04:59:45.157Z,1.99
2018-03-06T05:00:53.983Z,1.95
2018-03-06T05:02:02.808Z,1.83
2018-03-06T05:03:11.632Z,1.99
2018-03-06T05:04:20.458Z,1.95
2018-03-06T05:05:29.287Z,1.88
2018-03-06T05:06:38.112Z,1.91
2018-03-06T05:07:47.245Z,1.91
2018-03-06T05:08:56.070Z,1.91
2018-03-06T05:10:06.350Z,1.81
2018-03-06T05:11:15.176Z,1.86
2018-03-06T05:12:24.001Z,1.88
2018-03-06T05:13:32.831Z,1.9
2018-03-06T05:14:41.671Z,1.83
2018-03-06T05:15:50.496Z,1.86
2018-03-06T05:16:59.638Z,1.81
2018-03-06T05:18:08.755Z,1.84
2018-03-06T05:19:17.580Z,1.76
2018-03-06T05:20:26.408Z,1.93
2018-03-06T05:21:35.537Z,1.86
2018-03-06T05:22:44.364Z,1.86
2018-03-06T05:23:53.497Z,1.81
2018-03-06T05:25:02.324Z,1.79
2018-03-06T05:26:11.150Z,1.73
2018-03-06T05:27:20.126Z,1.73
2018-03-06T05:28:28.954Z,1.73
2018-03-06T05:29:38.079Z,1.8
2018-03-06T05:30:46.906Z,1.76
2018-03-06T05:31:55.732Z,1.76
2018-03-06T05:33:04.708Z,1.8
2018-03-06T05:34:13.535Z,1.73
2018-03-06T05:35:23.192Z,1.72
2018-03-06T05:36:32.018Z,1.63
2018-03-06T05:37:40.845Z,1.72
2018-03-06T05:38:49.972Z,1.76
2018-03-06T05:39:58.798Z,1.76
2018-03-06T05:41:07.667Z,1.77
2018-03-06T05:42:16.547Z,1.69
2018-03-06T05:43:25.372Z,1.7
2018-03-06T05:44:34.198Z,1.73
2018-03-06T05:45:44.262Z,1.79
2018-03-06T05:46:53.086Z,1.83
2018-03-06T05:48:01.913Z,1.88
2018-03-06T05:49:10.840Z,1.79
2018-03-06T05:50:19.668Z,1.83
2018-03-06T05:51:29.582Z,1.9
2018-03-06T05:52:38.406Z,1.91
2018-03-06T05:53:47.249Z,1.88
2018-03-06T05:54:56.074Z,1.93
2018-03-06T05:56:04.900Z,1.93
2018-03-06T05:57:13.726Z,1.9
2018-03-06T05:58:22.839Z,1.9
2018-03-06T05:59:31.666Z,1.93
2018-03-06T06:00:40.493Z,1.98
2018-03-06T06:01:49.319Z,2.05
2018-03-06T06:02:58.143Z,1.88
2018-03-06T06:04:06.971Z,1.93
2018-03-06T06:05:15.799Z,1.77
2018-03-06T06:06:24.626Z,1.83
2018-03-06T06:07:33.455Z,1.86
2018-03-06T06:08:42.281Z,1.83
2018-03-06T06:09:51.358Z,1.76
2018-03-06T06:11:00.189Z,1.88
2018-03-06T06:12:09.016Z,1.81
2018-03-06T06:13:17.843Z,1.83
2018-03-06T06:14:26.670Z,1.81
2018-03-06T06:15:35.746Z,1.76
2018-03-06T06:16:44.570Z,1.77
2018-03-06T06:17:53.395Z,1.9
2018-03-06T06:19:02.504Z,1.81
2018-03-06T06:20:11.337Z,1.86
2018-03-06T06:21:20.201Z,1.79
2018-03-06T06:22:28.993Z,1.7
2018-03-06T06:23:37.819Z,1.79
2018-03-06T06:24:46.649Z,1.73
2018-03-06T06:25:55.480Z,1.73
2018-03-06T06:27:04.306Z,1.73
2018-03-06T06:28:13.413Z,1.8
2018-03-06T06:29:22.240Z,1.7
2018-03-06T06:30:31.067Z,1.72
2018-03-06T06:31:39.897Z,1.66
2018-03-06T06:32:48.725Z,1.69
2018-03-06T06:33:57.550Z,1.81
2018-03-06T06:35:06.377Z,1.73
2018-03-06T06:36:15.204Z,1.69
2018-03-06T06:37:24.033Z,1.72
2018-03-06T06:38:32.894Z,1.76
2018-03-06T06:39:41.761Z,1.76
2018-03-06T06:40:50.628Z,1.72
2018-03-06T06:41:59.460Z,1.77
2018-03-06T06:43:08.284Z,1.76
2018-03-06T06:44:17.210Z,1.7
2018-03-06T06:45:26.318Z,1.72
2018-03-06T06:46:35.147Z,1.76
2018-03-06T06:47:43.975Z,1.8
2018-03-06T06:48:52.800Z,1.72
2018-03-06T06:50:01.728Z,1.7
2018-03-06T06:51:10.553Z,1.76
2018-03-06T06:52:19.380Z,1.76
2018-03-06T06:53:28.208Z,1.79
2018-03-06T06:54:37.091Z,1.8
2018-03-06T06:55:46.067Z,1.76
2018-03-06T06:56:54.897Z,1.79
2018-03-06T06:58:03.722Z,1.8
2018-03-06T06:59:12.568Z,1.86
2018-03-06T07:00:21.670Z,1.83
2018-03-06T07:01:31.070Z,1.76
2018-03-06T07:02:39.900Z,1.81
2018-03-06T07:03:48.726Z,1.86
2018-03-06T07:04:57.563Z,1.86
2018-03-06T07:06:06.783Z,1.87
2018-03-06T07:07:15.763Z,1.81
2018-03-06T07:08:24.585Z,1.86
2018-03-06T07:09:33.414Z,1.84
2018-03-06T07:10:42.238Z,1.83
2018-03-06T07:11:51.065Z,1.8
2018-03-06T07:12:59.991Z,1.93
2018-03-06T07:14:08.819Z,1.88
2018-03-06T07:15:17.647Z,1.86
2018-03-06T07:16:26.475Z,1.91
2018-03-06T07:17:35.301Z,1.9
2018-03-06T07:18:44.177Z,1.98
2018-03-06T07:19:53.006Z,1.98
2018-03-06T07:21:01.835Z,2.05
2018-03-06T07:22:10.661Z,1.8
2018-03-06T07:23:19.496Z,1.91
2018-03-06T07:24:28.541Z,2
2018-03-06T07:25:37.344Z,2.09
2018-03-06T07:26:46.719Z,2.05
2018-03-06T07:27:55.580Z,2.06
2018-03-06T07:29:04.374Z,2.06
2018-03-06T07:30:13.199Z,2.03
2018-03-06T07:31:22.027Z,2.06
2018-03-06T07:32:30.854Z,2.14
2018-03-06T07:33:39.682Z,2.1
2018-03-06T07:34:48.509Z,2.18
2018-03-06T07:35:57.490Z,2.23
2018-03-06T07:37:06.314Z,2.27
2018-03-06T07:38:15.141Z,2.27
2018-03-06T07:39:23.969Z,2.28
2018-03-06T07:40:32.798Z,2.24
2018-03-06T07:41:41.910Z,2.34
2018-03-06T07:42:50.739Z,2.35
2018-03-06T07:43:59.566Z,2.35
2018-03-06T07:45:08.394Z,2.3
2018-03-06T07:46:17.500Z,2.35
2018-03-06T07:47:26.380Z,2.39
2018-03-06T07:48:35.206Z,2.43
2018-03-06T07:49:44.032Z,2.42
2018-03-06T07:50:52.860Z,2.49
2018-03-06T07:52:01.686Z,2.53
2018-03-06T07:53:10.513Z,2.54
2018-03-06T07:54:19.341Z,2.56
2018-03-06T07:55:28.724Z,2.6
2018-03-06T07:56:37.550Z,2.56
2018-03-06T07:57:46.375Z,2.53
2018-03-06T07:58:55.355Z,2.64
2018-03-06T08:00:04.464Z,2.57
2018-03-06T08:01:13.291Z,2.64
2018-03-06T08:02:22.119Z,2.59
2018-03-06T08:03:30.948Z,2.6
2018-03-06T08:04:39.832Z,2.66
2018-03-06T08:05:48.661Z,2.71
2018-03-06T08:06:57.759Z,2.72
2018-03-06T08:08:06.587Z,2.78
2018-03-06T08:09:15.419Z,2.72
2018-03-06T08:10:24.400Z,2.77
2018-03-06T08:11:33.225Z,2.78
2018-03-06T08:12:42.055Z,2.74
2018-03-06T08:13:50.881Z,2.74
2018-03-06T08:14:59.988Z,2.9
2018-03-06T08:16:09.188Z,2.92
2018-03-06T08:17:18.019Z,2.9
2018-03-06T08:18:27.126Z,2.84
2018-03-06T08:19:35.955Z,2.9
2018-03-06T08:20:44.787Z,2.92
2018-03-06T08:21:53.667Z,2.96
2018-03-06T08:23:02.498Z,3.02
2018-03-06T08:24:11.326Z,3.08
2018-03-06T08:25:20.431Z,3.1
2018-03-06T08:26:29.255Z,3.13
2018-03-06T08:27:38.335Z,3.03
2018-03-06T08:28:47.162Z,3.1
2018-03-06T08:29:55.993Z,3.11
2018-03-06T08:31:05.706Z,3.13
2018-03-06T08:32:14.536Z,3.26
2018-03-06T08:33:23.413Z,3.15
2018-03-06T08:34:32.240Z,3.26
2018-03-06T08:35:41.072Z,3.24
2018-03-06T08:36:49.893Z,3.24
2018-03-06T08:37:58.720Z,3.39
2018-03-06T08:39:07.899Z,3.36
2018-03-06T08:40:16.731Z,3.42
2018-03-06T08:41:25.833Z,3.42
2018-03-06T08:42:34.664Z,3.42
2018-03-06T08:43:43.492Z,3.35
2018-03-06T08:44:52.455Z,3.45
2018-03-06T08:46:01.249Z,3.48
2018-03-06T08:47:10.076Z,3.54
2018-03-06T08:48:18.905Z,3.5
2018-03-06T08:49:27.732Z,3.57
2018-03-06T08:50:36.658Z,3.48
2018-03-06T08:51:45.487Z,3.68
2018-03-06T08:52:54.318Z,3.7
2018-03-06T08:54:03.148Z,3.78
2018-03-06T08:55:11.987Z,3.73
2018-03-06T08:56:20.955Z,3.72
2018-03-06T08:57:29.783Z,3.72
2018-03-06T08:58:38.612Z,3.78
2018-03-06T08:59:47.438Z,3.78
2018-03-06T09:00:56.270Z,3.79
2018-03-06T09:02:05.202Z,3.79
2018-03-06T09:03:14.026Z,3.73
2018-03-06T09:04:23.132Z,3.93
2018-03-06T09:05:31.961Z,3.91
2018-03-06T09:06:40.792Z,3.91
2018-03-06T09:07:49.669Z,3.96
2018-03-06T09:08:58.497Z,4.02
2018-03-06T09:10:07.329Z,4.09
2018-03-06T09:11:16.159Z,4.06
2018-03-06T09:12:24.987Z,4.06
2018-03-06T09:13:34.117Z,4.09
2018-03-06T09:14:42.949Z,4.11
2018-03-06T09:15:51.779Z,4.24
2018-03-06T09:17:00.607Z,4.24
2018-03-06T09:18:09.435Z,4.32
2018-03-06T09:19:18.365Z,4.4
2018-03-06T09:20:27.195Z,4.42
2018-03-06T09:21:36.023Z,4.47
2018-03-06T09:22:44.854Z,4.52
2018-03-06T09:23:53.684Z,4.62
2018-03-06T09:25:02.614Z,4.59
2018-03-06T09:26:11.441Z,4.72
2018-03-06T09:27:20.274Z,4.72
2018-03-06T09:28:29.104Z,4.73
2018-03-06T09:29:37.934Z,4.75
2018-03-06T09:30:46.819Z,4.91
2018-03-06T09:31:55.982Z,4.91
2018-03-06T09:33:04.811Z,5
2018-03-06T09:34:13.643Z,4.99
2018-03-06T09:35:22.470Z,5.02
2018-03-06T09:36:31.501Z,5.1
2018-03-06T09:37:40.332Z,4.99
2018-03-06T09:38:49.161Z,5.07
2018-03-06T09:39:57.994Z,5.13
2018-03-06T09:41:06.821Z,5.2
2018-03-06T09:42:16.027Z,5.03
2018-03-06T09:43:24.858Z,5.06
2018-03-06T09:44:33.688Z,5.2
2018-03-06T09:45:42.568Z,5.12
2018-03-06T09:46:51.395Z,5.25
2018-03-06T09:48:00.529Z,5.3
2018-03-06T09:49:09.362Z,5.46
2018-03-06T09:50:18.191Z,5.4
2018-03-06T09:51:27.023Z,5.48
2018-03-06T09:52:35.851Z,5.53
2018-03-06T09:53:44.731Z,5.64
2018-03-06T09:54:53.562Z,5.65
2018-03-06T09:56:02.391Z,5.72
2018-03-06T09:57:11.223Z,5.71
2018-03-06T09:58:20.052Z,5.76
2018-03-06T09:59:28.985Z,5.81
2018-03-06T10:00:37.816Z,5.78
2018-03-06T10:01:46.647Z,5.9
2018-03-06T10:02:55.477Z,5.9
2018-03-06T10:04:04.305Z,5.83
2018-03-06T10:05:13.187Z,6.04
2018-03-06T10:06:22.015Z,6.04
2018-03-06T10:07:30.844Z,6.09
2018-03-06T10:08:39.673Z,6.25
2018-03-06T10:09:48.503Z,6.11
2018-03-06T10:10:57.535Z,6.27
2018-03-06T10:12:06.368Z,6.3
2018-03-06T10:13:15.198Z,6.25
2018-03-06T10:14:24.027Z,6.33
2018-03-06T10:15:32.858Z,6.27
2018-03-06T10:16:41.989Z,6.4
2018-03-06T10:17:50.824Z,6.37
2018-03-06T10:18:59.656Z,6.4
2018-03-06T10:20:08.486Z,6.49
2018-03-06T10:21:17.314Z,6.52
2018-03-06T10:22:26.453Z,6.52
2018-03-06T10:23:35.280Z,6.62
2018-03-06T10:24:44.145Z,6.64
2018-03-06T10:25:52.952Z,6.7
2018-03-06T10:27:01.788Z,6.67
2018-03-06T10:28:11.041Z,6.7
2018-03-06T10:29:19.869Z,6.73
2018-03-06T10:30:28.701Z,6.84
2018-03-06T10:31:37.533Z,6.89
2018-03-06T10:32:46.363Z,6.91
2018-03-06T10:33:55.345Z,6.94
2018-03-06T10:35:04.511Z,6.84
2018-03-06T10:36:13.343Z,6.89
2018-03-06T10:37:22.174Z,6.79
2018-03-06T10:38:31.005Z,6.94
2018-03-06T10:39:39.886Z,6.94
2018-03-06T10:40:48.721Z,7.05
2018-03-06T10:41:57.553Z,7.16
2018-03-06T10:43:06.388Z,7.12
2018-03-06T10:44:15.222Z,7.12
2018-03-06T10:45:24.054Z,7.07
2018-03-06T10:46:33.168Z,7.1
2018-03-06T10:47:42.000Z,7.17
2018-03-06T10:48:50.830Z,7.24
2018-03-06T10:49:59.663Z,7.2
2018-03-06T10:51:08.501Z,7.31
2018-03-06T10:52:17.328Z,7.34
2018-03-06T10:53:26.159Z,7.17
2018-03-06T10:54:34.991Z,7.15
2018-03-06T10:55:43.827Z,7.15
2018-03-06T10:56:53.034Z,7.21
2018-03-06T10:58:01.868Z,7.28
2018-03-06T10:59:10.703Z,7.37
2018-03-06T11:00:19.538Z,7.17
2018-03-06T11:01:28.646Z,7.24
2018-03-06T11:02:37.528Z,7.37
2018-03-06T11:03:46.360Z,7.45
2018-03-06T11:04:55.194Z,7.48
2018-03-06T11:06:04.027Z,7.52
2018-03-06T11:07:12.857Z,7.61
2018-03-06T11:08:21.943Z,7.68
2018-03-06T11:09:30.776Z,7.72
2018-03-06T11:10:39.612Z,7.83
2018-03-06T11:11:48.718Z,7.74
2018-03-06T11:12:57.551Z,7.83
2018-03-06T11:14:06.537Z,7.89
2018-03-06T11:15:15.372Z,7.85
2018-03-06T11:16:24.207Z,7.89
2018-03-06T11:17:33.040Z,7.9
2018-03-06T11:18:41.872Z,7.85
2018-03-06T11:19:50.994Z,7.89
2018-03-06T11:20:59.828Z,7.93
2018-03-06T11:22:08.663Z,7.98
2018-03-06T11:23:17.495Z,7.93
2018-03-06T11:24:26.329Z,8.02
2018-03-06T11:25:35.734Z,8.16
2018-03-06T11:26:44.844Z,8.12
2018-03-06T11:27:53.677Z,8.18
2018-03-06T11:29:02.511Z,8.25
2018-03-06T11:30:11.344Z,8.28
2018-03-06T11:31:20.180Z,8.28
2018-03-06T11:32:29.015Z,8.26
2018-03-06T11:33:37.848Z,8.25
2018-03-06T11:34:46.680Z,8.26
2018-03-06T11:35:55.518Z,8.36
2018-03-06T11:37:04.450Z,8.36
2018-03-06T11:38:13.283Z,8.44
2018-03-06T11:39:22.392Z,8.44
2018-03-06T11:40:31.504Z,8.48
2018-03-06T11:41:40.623Z,8.44
2018-03-06T11:42:49.461Z,8.44
2018-03-06T11:43:58.570Z,8.48
2018-03-06T11:45:07.404Z,8.44
2018-03-06T11:46:16.236Z,8.53
2018-03-06T11:47:25.071Z,8.59
2018-03-06T11:48:34.229Z,8.47
2018-03-06T11:49:43.062Z,8.56
2018-03-06T11:50:51.896Z,8.63
2018-03-06T11:52:00.730Z,8.58
2018-03-06T11:53:09.561Z,8.66
2018-03-06T11:54:18.448Z,8.73
2018-03-06T11:55:27.281Z,8.7
2018-03-06T11:56:36.114Z,8.74
2018-03-06T11:57:44.951Z,8.86
2018-03-06T11:58:53.784Z,8.89
2018-03-06T12:00:02.867Z,8.91
2018-03-06T12:01:11.702Z,8.92
2018-03-06T12:02:20.535Z,8.92
2018-03-06T12:03:29.370Z,8.89
2018-03-06T12:04:38.204Z,9.08
2018-03-06T12:05:47.289Z,9.08
2018-03-06T12:06:56.122Z,9.08
2018-03-06T12:08:04.959Z,9.15
2018-03-06T12:09:13.790Z,9.1
2018-03-06T12:10:22.625Z,9.11
2018-03-06T12:11:31.560Z,9.17
2018-03-06T12:12:40.396Z,9.17
2018-03-06T12:13:49.508Z,9.23
2018-03-06T12:14:58.350Z,9.36
2018-03-06T12:16:07.456Z,9.42
2018-03-06T12:17:16.341Z,9.47
2018-03-06T12:18:25.179Z,9.56
2018-03-06T12:19:34.013Z,9.65
2018-03-06T12:20:42.848Z,9.69
2018-03-06T12:21:51.683Z,9.69
2018-03-06T12:23:00.775Z,9.74
2018-03-06T12:24:09.623Z,9.84
2018-03-06T12:25:18.460Z,9.86
2018-03-06T12:26:27.296Z,9.91
2018-03-06T12:27:36.137Z,10.07
2018-03-06T12:28:45.120Z,10.08
2018-03-06T12:29:53.959Z,10.09
2018-03-06T12:31:02.796Z,10.07
2018-03-06T12:32:11.633Z,10.18
2018-03-06T12:33:20.748Z,10.32
2018-03-06T12:34:29.634Z,10.3
2018-03-06T12:35:38.472Z,10.41
2018-03-06T12:36:47.326Z,10.45
2018-03-06T12:37:56.147Z,10.56
2018-03-06T12:39:04.985Z,10.59
2018-03-06T12:40:13.976Z,10.64
2018-03-06T12:41:22.815Z,10.6
2018-03-06T12:42:31.658Z,10.52
2018-03-06T12:43:40.498Z,10.42
2018-03-06T12:44:49.339Z,10.61
2018-03-06T12:45:58.429Z,10.55
2018-03-06T12:47:07.267Z,10.52
2018-03-06T12:48:16.104Z,10.66
2018-03-06T12:49:24.945Z,10.79
2018-03-06T12:50:33.779Z,10.78
2018-03-06T12:51:42.769Z,10.84
2018-03-06T12:52:51.878Z,10.86
2018-03-06T12:54:00.722Z,10.82
2018-03-06T12:55:09.561Z,10.86
2018-03-06T12:56:18.402Z,10.86
2018-03-06T12:57:27.491Z,10.81
2018-03-06T12:58:36.611Z,10.82
2018-03-06T12:59:45.451Z,10.81
2018-03-06T13:00:54.566Z,10.84
2018-03-06T13:02:03.682Z,10.88
2018-03-06T13:03:12.520Z,10.86
2018-03-06T13:04:21.360Z,10.97
2018-03-06T13:05:30.470Z,10.97
2018-03-06T13:06:39.308Z,11.04
2018-03-06T13:07:48.148Z,11
2018-03-06T13:08:56.990Z,11.06
2018-03-06T13:10:05.827Z,11.06
2018-03-06T13:11:14.941Z,11.09
2018-03-06T13:12:23.780Z,11.21
2018-03-06T13:13:32.619Z,11.22
2018-03-06T13:14:41.612Z,11.29
2018-03-06T13:15:50.454Z,11.37
2018-03-06T13:16:59.295Z,11.28
2018-03-06T13:18:08.133Z,11.36
2018-03-06T13:19:16.971Z,11.4
2018-03-06T13:20:25.910Z,11.6
2018-03-06T13:21:34.749Z,11.58
2018-03-06T13:22:43.589Z,11.64
2018-03-06T13:23:52.451Z,11.52
2018-03-06T13:25:01.267Z,11.42
2018-03-06T13:26:10.106Z,11.44
2018-03-06T13:27:18.946Z,11.55
2018-03-06T13:28:28.069Z,11.54
2018-03-06T13:29:36.907Z,11.61
2018-03-06T13:30:45.748Z,11.55
2018-03-06T13:31:54.738Z,11.57
2018-03-06T13:33:03.590Z,11.57
2018-03-06T13:34:12.429Z,11.7
2018-03-06T13:35:21.272Z,11.7
2018-03-06T13:36:30.109Z,11.79
2018-03-06T13:37:39.049Z,11.76
2018-03-06T13:38:47.920Z,11.9
2018-03-06T13:39:56.730Z,12.07
2018-03-06T13:41:05.572Z,11.99
2018-03-06T13:42:14.687Z,11.91
2018-03-06T13:43:23.525Z,11.76
2018-03-06T13:44:32.365Z,11.79
2018-03-06T13:45:41.203Z,11.76
2018-03-06T13:46:50.043Z,11.76
2018-03-06T13:47:59.167Z,11.73
2018-03-06T13:49:08.009Z,11.76
2018-03-06T13:50:16.843Z,11.91
2018-03-06T13:51:25.693Z,12.07
2018-03-06T13:52:34.532Z,11.99
2018-03-06T13:53:43.372Z,12.07
2018-03-06T13:54:52.263Z,12.17
2018-03-06T13:56:01.104Z,12.29
2018-03-06T13:57:09.942Z,12.31
2018-03-06T13:58:18.983Z,12.46
2018-03-06T13:59:27.822Z,12.47
2018-03-06T14:00:36.664Z,12.41
2018-03-06T14:01:45.502Z,12.42
2018-03-06T14:02:54.342Z,12.47
2018-03-06T14:04:03.183Z,12.56
2018-03-06T14:05:12.024Z,12.7
2018-03-06T14:06:20.866Z,12.7
2018-03-06T14:07:29.707Z,12.64
2018-03-06T14:08:38.547Z,12.64
2018-03-06T14:09:47.390Z,12.57
2018-03-06T14:10:56.232Z,12.77
2018-03-06T14:12:05.125Z,12.9
2018-03-06T14:13:13.971Z,13.01
2018-03-06T14:14:22.823Z,13.1
2018-03-06T14:15:31.673Z,13.25
2018-03-06T14:16:40.513Z,13.15
2018-03-06T14:17:49.505Z,13.22
2018-03-06T14:18:58.349Z,13.28
2018-03-06T14:20:07.194Z,13.32
2018-03-06T14:21:16.313Z,13.48
2018-03-06T14:22:25.158Z,13.41
2018-03-06T14:23:34.280Z,13.51
2018-03-06T14:24:43.124Z,13.49
2018-03-06T14:25:52.242Z,13.6
2018-03-06T14:27:01.085Z,13.54
2018-03-06T14:28:09.927Z,13.78
2018-03-06T14:29:19.020Z,13.75
2018-03-06T14:30:27.863Z,13.59
2018-03-06T14:31:36.986Z,13.52
2018-03-06T14:32:45.829Z,13.64
2018-03-06T14:33:54.671Z,13.54
2018-03-06T14:35:03.789Z,13.48
2018-03-06T14:36:12.631Z,13.51
2018-03-06T14:37:21.477Z,13.41
2018-03-06T14:38:30.321Z,13.46
2018-03-06T14:39:39.159Z,13.44
2018-03-06T14:40:48.063Z,13.49
2018-03-06T14:41:56.908Z,13.33
2018-03-06T14:43:05.756Z,13.51
2018-03-06T14:44:14.590Z,13.41
2018-03-06T14:45:23.431Z,13.45
2018-03-06T14:46:32.573Z,13.52
2018-03-06T14:47:41.690Z,13.45
2018-03-06T14:48:50.532Z,13.3
2018-03-06T14:49:59.378Z,13.26
2018-03-06T14:51:08.225Z,13.29
2018-03-06T14:52:17.059Z,13.15
2018-03-06T14:53:25.899Z,13.03
2018-03-06T14:54:34.748Z,12.78
2018-03-06T14:55:43.582Z,12.7
2018-03-06T14:56:52.423Z,12.62
2018-03-06T14:58:01.313Z,12.7
2018-03-06T14:59:10.153Z,12.42
2018-03-06T15:00:18.993Z,12.32
2018-03-06T15:01:27.831Z,12.17
2018-03-06T15:02:36.677Z,12.34
2018-03-06T15:03:45.939Z,12.46
2018-03-06T15:04:54.776Z,12.6
2018-03-06T15:06:03.893Z,12.53
2018-03-06T15:07:12.732Z,12.57
2018-03-06T15:08:21.572Z,12.49
2018-03-06T15:09:30.691Z,12.42
2018-03-06T15:10:39.531Z,12.5
2018-03-06T15:11:48.373Z,12.49
2018-03-06T15:12:57.226Z,12.41
2018-03-06T15:14:06.065Z,12.35
2018-03-06T15:15:15.186Z,12.34
2018-03-06T15:16:24.025Z,12.42